createdAt,value
2023-01-27T00:00:54.730Z,18.67
2023-01-27T00:03:21.750Z,20.52
2023-01-27T00:05:49.178Z,19.90
2023-01-27T00:08:15.721Z,19.15
2023-01-27T00:10:42.605Z,19.90
2023-01-27T00:13:26.885Z,20.98
2023-01-27T00:15:53.846Z,22.93
2023-01-27T00:18:20.571Z,24.52
2023-01-27T00:21:01.429Z,18.88
2023-01-27T00:23:42.117Z,22.08
2023-01-27T00:26:12.830Z,18.73
2023-01-27T00:28:40.449Z,18.48
2023-01-27T00:31:22.229Z,18.00
2023-01-27T00:33:49.568Z,19.25
2023-01-27T00:36:16.143Z,20.48
2023-01-27T00:38:42.707Z,19.70
2023-01-27T00:41:23.208Z,18.33
2023-01-27T00:43:53.729Z,19.83
2023-01-27T00:46:21.535Z,19.75
2023-01-27T00:48:48.730Z,19.10
2023-01-27T00:51:15.750Z,19.98
2023-01-27T00:53:42.509Z,21.30
2023-01-27T00:56:09.666Z,19.40
2023-01-27T00:58:36.443Z,21.17
2023-01-27T01:01:04.496Z,19.33
2023-01-27T01:03:32.349Z,18.02
2023-01-27T01:06:06.659Z,18.33
2023-01-27T01:08:34.483Z,18.63
2023-01-27T01:11:01.342Z,17.00
2023-01-27T01:13:28.553Z,19.02
2023-01-27T01:15:55.730Z,19.27
2023-01-27T01:18:22.459Z,18.77
2023-01-27T01:20:49.210Z,18.20
2023-01-27T01:23:16.449Z,20.45
2023-01-27T01:25:43.371Z,19.30
2023-01-27T01:28:10.226Z,21.48
2023-01-27T01:30:37.338Z,19.30
2023-01-27T01:33:04.785Z,18.45
2023-01-27T01:35:31.875Z,20.17
2023-01-27T01:37:58.546Z,19.27
2023-01-27T01:40:25.948Z,20.08
2023-01-27T01:42:55.667Z,20.17
2023-01-27T01:45:31.575Z,20.83
2023-01-27T01:48:03.282Z,22.02
2023-01-27T01:50:30.113Z,20.15
2023-01-27T01:52:56.814Z,20.50
2023-01-27T01:55:24.067Z,20.98
2023-01-27T01:57:51.616Z,21.35
2023-01-27T02:00:18.305Z,20.67
2023-01-27T02:02:45.850Z,20.17
2023-01-27T02:05:41.649Z,19.77
2023-01-27T02:08:11.976Z,21.33
2023-01-27T02:10:38.869Z,20.30
2023-01-27T02:13:05.555Z,19.00
2023-01-27T02:15:32.732Z,18.90
2023-01-27T02:18:00.768Z,18.15
2023-01-27T02:20:41.465Z,18.38
2023-01-27T02:23:16.888Z,18.13
2023-01-27T02:25:52.953Z,18.98
2023-01-27T02:28:19.530Z,16.50
2023-01-27T02:30:46.287Z,18.38
2023-01-27T02:33:13.751Z,18.23
2023-01-27T02:35:48.364Z,17.58
2023-01-27T02:38:17.535Z,18.15
2023-01-27T02:40:44.783Z,17.70
2023-01-27T02:43:11.359Z,19.73
2023-01-27T02:45:37.967Z,18.50
2023-01-27T02:48:04.619Z,21.73
2023-01-27T02:50:31.374Z,20.33
2023-01-27T02:52:58.021Z,21.33
2023-01-27T02:55:24.596Z,19.55
2023-01-27T02:57:51.222Z,25.60
2023-01-27T03:00:18.740Z,31.63
2023-01-27T03:02:45.313Z,28.15
2023-01-27T03:05:12.292Z,25.75
2023-01-27T03:07:39.080Z,25.42
2023-01-27T03:10:05.993Z,20.95
2023-01-27T03:12:32.654Z,19.45
2023-01-27T03:15:13.467Z,18.20
2023-01-27T03:17:54.069Z,18.10
2023-01-27T03:20:21.971Z,18.50
2023-01-27T03:22:48.971Z,19.42
2023-01-27T03:25:16.264Z,18.25
2023-01-27T03:27:43.122Z,18.98
2023-01-27T03:30:10.352Z,19.08
2023-01-27T03:32:37.104Z,19.35
2023-01-27T03:35:04.189Z,19.73
2023-01-27T03:37:45.626Z,19.02
2023-01-27T03:40:26.718Z,19.25
2023-01-27T03:43:07.573Z,20.02
2023-01-27T03:45:48.297Z,20.52
2023-01-27T03:48:14.906Z,20.02
2023-01-27T03:50:44.427Z,20.38
2023-01-27T03:53:11.418Z,20.17
2023-01-27T03:55:38.915Z,19.73
2023-01-27T03:58:18.529Z,20.27
2023-01-27T04:00:46.241Z,20.90
2023-01-27T04:03:27.029Z,21.13
2023-01-27T04:06:07.605Z,20.90
2023-01-27T04:08:34.432Z,19.92
2023-01-27T04:11:18.443Z,19.42
2023-01-27T04:13:45.124Z,18.00
2023-01-27T04:16:11.864Z,19.02
2023-01-27T04:18:38.632Z,17.75
2023-01-27T04:21:05.513Z,17.42
2023-01-27T04:23:32.125Z,17.30
2023-01-27T04:26:00.404Z,17.63
2023-01-27T04:28:43.195Z,18.52
2023-01-27T04:31:10.431Z,18.90
2023-01-27T04:33:37.162Z,18.00
2023-01-27T04:36:03.946Z,18.48
2023-01-27T04:38:30.652Z,17.70
2023-01-27T04:40:57.271Z,18.50
2023-01-27T04:43:23.837Z,19.35
2023-01-27T04:45:50.384Z,20.33
2023-01-27T04:48:17.086Z,21.15
2023-01-27T04:50:43.655Z,19.42
2023-01-27T04:53:10.343Z,18.30
2023-01-27T04:55:37.119Z,18.63
2023-01-27T04:58:04.369Z,17.48
2023-01-27T05:00:31.387Z,17.73
2023-01-27T05:02:58.196Z,18.13
2023-01-27T05:05:24.826Z,17.77
2023-01-27T05:07:51.390Z,17.52
2023-01-27T05:10:18.856Z,18.13
2023-01-27T05:12:45.760Z,17.73
2023-01-27T05:15:12.771Z,17.58
2023-01-27T05:17:39.680Z,17.10
2023-01-27T05:20:06.634Z,17.50
2023-01-27T05:22:33.205Z,16.77
2023-01-27T05:24:59.934Z,17.58
2023-01-27T05:27:26.844Z,16.30
2023-01-27T05:29:53.594Z,16.02
2023-01-27T05:32:20.403Z,16.58
2023-01-27T05:34:47.271Z,16.27
2023-01-27T05:37:14.152Z,17.30
2023-01-27T05:39:40.815Z,16.23
2023-01-27T05:42:07.835Z,17.45
2023-01-27T05:44:34.611Z,17.98
2023-01-27T05:47:01.412Z,16.80
2023-01-27T05:49:28.487Z,18.65
2023-01-27T05:51:55.207Z,17.95
2023-01-27T05:54:22.168Z,18.60
2023-01-27T05:56:48.865Z,19.63
2023-01-27T05:59:15.819Z,18.83
2023-01-27T06:01:42.639Z,18.63
2023-01-27T06:04:09.970Z,20.33
2023-01-27T06:06:36.645Z,20.70
2023-01-27T06:09:03.831Z,20.77
2023-01-27T06:11:30.634Z,21.00
2023-01-27T06:13:57.360Z,21.80
2023-01-27T06:16:24.588Z,22.65
2023-01-27T06:18:51.302Z,21.17
2023-01-27T06:21:18.586Z,24.63
2023-01-27T06:23:45.492Z,27.52
2023-01-27T06:26:19.299Z,28.85
2023-01-27T06:28:46.154Z,25.30
2023-01-27T06:31:14.565Z,27.67
2023-01-27T06:33:41.765Z,29.02
2023-01-27T06:36:10.217Z,36.72
2023-01-27T06:38:37.693Z,46.88
2023-01-27T06:41:04.545Z,43.20
2023-01-27T06:43:31.451Z,48.35
2023-01-27T06:45:58.594Z,46.72
2023-01-27T06:48:25.934Z,41.10
2023-01-27T06:50:53.419Z,32.92
2023-01-27T06:53:20.203Z,31.17
2023-01-27T06:55:47.286Z,31.50
2023-01-27T06:58:15.141Z,31.95
2023-01-27T07:00:42.244Z,33.92
2023-01-27T07:03:10.994Z,31.67
2023-01-27T07:05:38.522Z,26.73
2023-01-27T07:08:05.227Z,24.40
2023-01-27T07:10:31.947Z,23.42
2023-01-27T07:13:09.038Z,23.05
2023-01-27T07:15:35.840Z,23.83
2023-01-27T07:18:03.070Z,21.45
2023-01-27T07:20:30.774Z,22.17
2023-01-27T07:23:01.517Z,21.20
2023-01-27T07:25:28.929Z,20.98
2023-01-27T07:27:58.187Z,21.83
2023-01-27T07:30:25.613Z,21.60
2023-01-27T07:32:52.570Z,23.95
2023-01-27T07:35:19.324Z,23.65
2023-01-27T07:37:45.976Z,26.67
2023-01-27T07:40:13.808Z,29.95
2023-01-27T07:42:41.014Z,28.65
2023-01-27T07:45:08.610Z,28.38
2023-01-27T07:47:35.197Z,29.00
2023-01-27T07:50:01.777Z,30.33
2023-01-27T07:52:28.548Z,28.80
2023-01-27T07:54:55.143Z,24.13
2023-01-27T07:57:21.854Z,23.17
2023-01-27T07:59:48.647Z,24.02
2023-01-27T08:02:15.249Z,28.48
2023-01-27T08:04:52.555Z,27.52
2023-01-27T08:07:20.137Z,34.65
2023-01-27T08:09:46.698Z,31.85
2023-01-27T08:12:13.246Z,24.20
2023-01-27T08:14:39.812Z,24.38
2023-01-27T08:17:07.055Z,24.60
2023-01-27T08:19:34.141Z,28.23
2023-01-27T08:22:01.694Z,36.95
2023-01-27T08:24:30.297Z,33.92
2023-01-27T08:26:59.909Z,31.98
2023-01-27T08:29:30.338Z,32.03
2023-01-27T08:31:59.767Z,27.88
2023-01-27T08:34:28.433Z,27.50
2023-01-27T08:36:55.530Z,23.50
2023-01-27T08:39:24.646Z,20.35
2023-01-27T08:41:54.540Z,21.88
2023-01-27T08:44:25.230Z,36.58
2023-01-27T08:46:55.242Z,27.02
2023-01-27T08:49:24.423Z,26.65
2023-01-27T08:51:53.248Z,33.65
2023-01-27T08:54:24.773Z,32.53
2023-01-27T08:56:56.548Z,32.83
2023-01-27T08:59:28.486Z,32.92
2023-01-27T09:02:00.539Z,27.15
2023-01-27T09:04:32.666Z,21.92
2023-01-27T09:07:00.777Z,21.98
2023-01-27T09:09:29.003Z,22.70
2023-01-27T09:11:57.517Z,46.20
2023-01-27T09:14:27.212Z,28.48
2023-01-27T09:17:00.450Z,22.63
2023-01-27T09:19:32.856Z,23.48
2023-01-27T09:22:12.456Z,23.92
2023-01-27T09:24:41.141Z,24.75
2023-01-27T09:27:09.129Z,25.83
2023-01-27T09:29:37.696Z,24.63
2023-01-27T09:32:06.230Z,21.52
2023-01-27T09:34:34.522Z,22.35
2023-01-27T09:37:15.755Z,21.55
2023-01-27T09:39:54.137Z,22.65
2023-01-27T09:42:25.532Z,21.08
2023-01-27T09:45:00.523Z,20.58
2023-01-27T09:47:42.873Z,22.05
2023-01-27T09:50:20.166Z,21.48
2023-01-27T09:52:48.377Z,21.98
2023-01-27T09:55:23.125Z,21.02
2023-01-27T09:57:58.431Z,21.15
2023-01-27T10:00:38.468Z,20.15
2023-01-27T10:03:18.306Z,19.40
2023-01-27T10:05:57.331Z,21.25
2023-01-27T10:08:25.328Z,18.85
2023-01-27T10:10:58.253Z,19.55
2023-01-27T10:14:08.262Z,20.67
2023-01-27T10:17:18.920Z,20.00
2023-01-27T10:20:03.091Z,18.98
2023-01-27T10:22:32.450Z,20.95
2023-01-27T10:25:05.342Z,19.83
2023-01-27T10:27:46.146Z,23.75
2023-01-27T10:30:16.723Z,18.52
2023-01-27T10:33:08.052Z,21.30
2023-01-27T10:35:46.356Z,25.65
2023-01-27T10:38:19.548Z,21.63
2023-01-27T10:40:59.456Z,20.55
2023-01-27T10:43:37.298Z,19.98
2023-01-27T10:46:04.843Z,22.52
2023-01-27T10:48:46.119Z,20.42
2023-01-27T10:51:13.100Z,22.45
2023-01-27T10:53:52.827Z,20.58
2023-01-27T10:56:36.822Z,24.20
2023-01-27T10:59:07.056Z,24.88
2023-01-27T11:01:41.522Z,23.77
2023-01-27T11:04:22.444Z,23.55
2023-01-27T11:06:52.903Z,21.88
2023-01-27T11:09:29.264Z,21.13
2023-01-27T11:12:06.682Z,20.73
2023-01-27T11:14:47.516Z,20.73
2023-01-27T11:17:31.768Z,20.88
2023-01-27T11:20:09.225Z,21.63
2023-01-27T11:22:52.365Z,20.95
2023-01-27T11:25:25.862Z,22.75
2023-01-27T11:28:10.241Z,27.02
2023-01-27T11:30:44.285Z,21.63
2023-01-27T11:33:16.689Z,25.15
2023-01-27T11:35:44.674Z,19.23
2023-01-27T11:38:17.446Z,19.20
2023-01-27T11:40:47.662Z,20.58
2023-01-27T11:43:21.621Z,19.08
2023-01-27T11:45:52.668Z,21.45
2023-01-27T11:48:23.452Z,19.60
2023-01-27T11:50:51.098Z,18.65
2023-01-27T11:53:33.144Z,20.80
2023-01-27T11:56:05.080Z,18.98
2023-01-27T11:59:02.913Z,19.40
2023-01-27T12:01:51.212Z,18.58
2023-01-27T12:04:19.422Z,19.65
2023-01-27T12:06:56.404Z,18.77
2023-01-27T12:09:33.020Z,19.33
2023-01-27T12:12:11.954Z,18.05
2023-01-27T12:14:40.778Z,18.15
2023-01-27T12:17:09.478Z,17.05
2023-01-27T12:19:45.259Z,16.75
2023-01-27T12:22:27.749Z,15.80
2023-01-27T12:25:00.888Z,16.35
2023-01-27T12:27:38.538Z,14.95
2023-01-27T12:30:11.528Z,16.08
2023-01-27T12:32:45.173Z,14.80
2023-01-27T12:35:20.228Z,17.35
2023-01-27T12:37:48.256Z,15.90
2023-01-27T12:40:25.453Z,16.90
2023-01-27T12:43:13.645Z,17.17
2023-01-27T12:45:42.965Z,16.83
2023-01-27T12:48:10.497Z,16.73
2023-01-27T12:50:39.864Z,15.70
2023-01-27T12:53:14.123Z,16.85
2023-01-27T12:55:51.627Z,13.73
2023-01-27T12:58:34.467Z,12.27
2023-01-27T13:01:07.445Z,13.57
2023-01-27T13:03:42.761Z,14.00
2023-01-27T13:06:16.464Z,13.10
2023-01-27T13:08:49.867Z,13.50
2023-01-27T13:11:22.453Z,11.15
2023-01-27T13:13:54.663Z,9.98
2023-01-27T13:16:29.940Z,10.85
2023-01-27T13:21:27.585Z,10.05
2023-01-27T13:23:57.030Z,11.27
2023-01-27T13:26:29.255Z,10.60
2023-01-27T13:29:12.532Z,16.73
2023-01-27T13:31:52.625Z,24.60
2023-01-27T13:34:19.843Z,21.98
2023-01-27T13:36:53.690Z,14.63
2023-01-27T13:39:22.206Z,17.53
2023-01-27T13:41:57.731Z,13.85
2023-01-27T13:44:39.627Z,13.55
2023-01-27T13:47:14.598Z,13.77
2023-01-27T13:49:44.864Z,12.35
2023-01-27T13:52:13.337Z,12.63
2023-01-27T13:54:42.101Z,12.20
2023-01-27T13:57:23.767Z,13.52
2023-01-27T13:59:59.721Z,15.07
2023-01-27T14:02:41.102Z,14.48
2023-01-27T14:05:21.818Z,16.45
2023-01-27T14:08:02.223Z,17.58
2023-01-27T14:10:35.104Z,14.40
2023-01-27T14:13:15.497Z,14.27
2023-01-27T14:16:06.542Z,14.18
2023-01-27T14:18:36.923Z,16.63
2023-01-27T14:21:27.940Z,15.48
2023-01-27T14:24:26.271Z,17.48
2023-01-27T14:27:06.754Z,19.02
2023-01-27T14:29:37.030Z,20.73
2023-01-27T14:32:06.080Z,28.85
2023-01-27T14:34:48.568Z,32.28
2023-01-27T14:37:41.990Z,20.67
2023-01-27T14:40:18.653Z,20.02
2023-01-27T14:43:04.210Z,18.88
2023-01-27T14:45:31.873Z,22.15
2023-01-27T14:48:04.831Z,15.23
2023-01-27T14:50:47.190Z,24.50
2023-01-27T14:53:30.346Z,22.50
2023-01-27T14:56:16.524Z,44.38
2023-01-27T14:59:00.177Z,24.63
2023-01-27T15:01:28.855Z,16.90
2023-01-27T15:04:06.807Z,23.35
2023-01-27T15:06:35.450Z,18.35
2023-01-27T15:09:07.973Z,35.40
2023-01-27T15:11:39.280Z,16.23
2023-01-27T15:14:22.736Z,17.30
2023-01-27T15:16:57.745Z,17.20
2023-01-27T15:19:25.742Z,24.40
2023-01-27T15:22:02.088Z,16.70
2023-01-27T15:24:42.657Z,17.52
2023-01-27T15:27:10.110Z,17.40
2023-01-27T15:29:37.742Z,20.70
2023-01-27T15:32:10.956Z,18.42
2023-01-27T15:34:37.877Z,16.75
2023-01-27T15:37:11.313Z,17.02
2023-01-27T15:40:04.781Z,28.77
2023-01-27T15:42:45.805Z,19.13
2023-01-27T15:45:25.739Z,19.20
2023-01-27T15:47:58.764Z,23.77
2023-01-27T15:50:30.456Z,23.25
2023-01-27T15:53:11.402Z,23.27
2023-01-27T15:55:38.440Z,23.27
2023-01-27T15:58:11.207Z,23.40
2023-01-27T16:00:39.208Z,24.02
2023-01-27T16:03:08.085Z,25.33
2023-01-27T16:05:38.852Z,25.38
2023-01-27T16:08:10.843Z,27.38
2023-01-27T16:10:37.625Z,29.77
2023-01-27T16:13:18.157Z,26.48
2023-01-27T16:15:45.423Z,22.65
2023-01-27T16:18:12.052Z,26.58
2023-01-27T16:20:47.722Z,21.30
2023-01-27T16:23:19.146Z,27.73
2023-01-27T16:25:49.129Z,25.75
2023-01-27T16:28:21.186Z,26.38
2023-01-27T16:30:49.375Z,25.23
2023-01-27T16:33:19.099Z,25.10
2023-01-27T16:35:48.961Z,23.73
2023-01-27T16:38:29.395Z,24.23
2023-01-27T16:40:56.317Z,27.35
2023-01-27T16:43:25.590Z,27.42
2023-01-27T16:45:55.737Z,26.63
2023-01-27T16:48:36.457Z,26.70
2023-01-27T16:51:13.269Z,24.42
2023-01-27T16:53:43.433Z,22.42
2023-01-27T16:56:17.403Z,22.02
2023-01-27T16:58:46.578Z,23.90
2023-01-27T17:01:25.524Z,22.33
2023-01-27T17:03:54.133Z,25.00
2023-01-27T17:06:22.465Z,26.50
2023-01-27T17:08:49.592Z,27.60
2023-01-27T17:11:22.961Z,26.17
2023-01-27T17:13:52.687Z,24.05
2023-01-27T17:16:25.988Z,24.90
2023-01-27T17:18:54.111Z,33.72
2023-01-27T17:21:31.849Z,39.78
2023-01-27T17:24:19.377Z,37.17
2023-01-27T17:26:47.883Z,33.03
2023-01-27T17:29:16.339Z,32.03
2023-01-27T17:31:43.327Z,34.30
2023-01-27T17:34:14.612Z,28.05
2023-01-27T17:36:54.201Z,30.75
2023-01-27T17:39:25.538Z,30.27
2023-01-27T17:41:55.370Z,30.13
2023-01-27T17:44:22.062Z,31.95
2023-01-27T17:46:49.225Z,31.88
2023-01-27T17:49:17.342Z,34.05
2023-01-27T17:51:46.475Z,35.67
2023-01-27T17:54:27.267Z,33.78
2023-01-27T17:57:09.173Z,33.20
2023-01-27T17:59:46.819Z,29.15
2023-01-27T18:02:21.869Z,28.92
2023-01-27T18:04:52.173Z,28.10
2023-01-27T18:07:23.004Z,30.10
2023-01-27T18:10:02.872Z,27.50
2023-01-27T18:12:32.560Z,27.27
2023-01-27T18:15:23.891Z,26.60
2023-01-27T18:18:06.234Z,41.63
2023-01-27T18:20:44.930Z,33.22
2023-01-27T18:23:16.864Z,42.70
2023-01-27T18:25:52.847Z,37.63
2023-01-27T18:28:25.415Z,29.23
2023-01-27T18:30:54.280Z,26.13
2023-01-27T18:33:25.427Z,27.73
2023-01-27T18:36:05.065Z,26.98
2023-01-27T18:38:35.454Z,26.20
2023-01-27T18:41:24.859Z,27.27
2023-01-27T18:43:53.383Z,32.05
2023-01-27T18:46:24.618Z,26.48
2023-01-27T18:48:58.960Z,50.00
2023-01-27T18:51:27.387Z,30.15
2023-01-27T18:53:55.996Z,30.98
2023-01-27T18:56:27.066Z,27.50
2023-01-27T18:58:56.919Z,26.17
2023-01-27T19:01:29.487Z,25.80
2023-01-27T19:04:05.476Z,24.58
2023-01-27T19:06:40.242Z,39.25
2023-01-27T19:09:11.299Z,30.63
2023-01-27T19:11:38.283Z,32.33
2023-01-27T19:14:05.588Z,28.23
2023-01-27T19:16:35.337Z,33.72
2023-01-27T19:19:04.948Z,40.28
2023-01-27T19:21:37.962Z,33.53
2023-01-27T19:24:16.440Z,35.83
2023-01-27T19:26:45.936Z,33.78
2023-01-27T19:29:13.233Z,28.80
2023-01-27T19:31:40.575Z,31.65
2023-01-27T19:34:13.110Z,35.15
2023-01-27T19:36:49.456Z,32.30
2023-01-27T19:39:22.621Z,32.65
2023-01-27T19:41:52.637Z,35.72
2023-01-27T19:44:24.368Z,31.30
2023-01-27T19:46:53.164Z,40.42
2023-01-27T19:49:20.687Z,48.22
2023-01-27T19:51:48.306Z,36.75
2023-01-27T19:54:17.700Z,39.53
2023-01-27T19:56:48.003Z,73.85
2023-01-27T19:59:18.725Z,29.95
2023-01-27T20:01:49.414Z,31.63
2023-01-27T20:04:28.647Z,28.88
2023-01-27T20:07:02.594Z,32.38
2023-01-27T20:09:34.308Z,42.78
2023-01-27T20:12:02.075Z,32.35
2023-01-27T20:14:29.532Z,29.35
2023-01-27T20:16:59.513Z,27.88
2023-01-27T20:19:27.135Z,30.90
2023-01-27T20:22:08.505Z,26.50
2023-01-27T20:24:38.198Z,26.85
2023-01-27T20:27:06.468Z,25.05
2023-01-27T20:29:36.773Z,27.30
2023-01-27T20:32:10.436Z,26.67
2023-01-27T20:34:39.576Z,25.60
2023-01-27T20:37:07.872Z,30.00
2023-01-27T20:39:36.310Z,27.73
2023-01-27T20:42:04.132Z,26.35
2023-01-27T20:44:34.265Z,28.85
2023-01-27T20:47:04.852Z,52.63
2023-01-27T20:49:39.870Z,33.72
2023-01-27T20:52:11.261Z,28.58
2023-01-27T20:54:45.198Z,28.50
2023-01-27T20:57:18.806Z,25.65
2023-01-27T21:00:00.866Z,27.70
2023-01-27T21:02:44.785Z,27.70
2023-01-27T21:05:19.317Z,24.33
2023-01-27T21:07:53.317Z,21.08
2023-01-27T21:10:22.160Z,21.50
2023-01-27T21:12:49.999Z,20.20
2023-01-27T21:15:17.270Z,21.17
2023-01-27T21:17:44.058Z,21.88
2023-01-27T21:20:11.043Z,23.95
2023-01-27T21:22:37.685Z,22.70
2023-01-27T21:25:04.529Z,24.40
2023-01-27T21:27:31.073Z,21.67
2023-01-27T21:29:57.691Z,20.90
2023-01-27T21:32:24.341Z,21.02
2023-01-27T21:34:50.915Z,20.70
2023-01-27T21:37:19.713Z,23.98
2023-01-27T21:39:46.600Z,23.85
2023-01-27T21:42:13.991Z,25.75
2023-01-27T21:45:07.135Z,26.25
2023-01-27T21:47:33.669Z,24.98
2023-01-27T21:50:00.375Z,22.67
2023-01-27T21:52:36.009Z,22.05
2023-01-27T21:55:04.400Z,22.00
2023-01-27T21:57:32.171Z,23.23
2023-01-27T21:59:59.884Z,24.65
2023-01-27T22:02:27.373Z,20.83
2023-01-27T22:04:55.122Z,22.15
2023-01-27T22:07:22.465Z,22.60
2023-01-27T22:09:49.119Z,22.95
2023-01-27T22:12:16.188Z,21.67
2023-01-27T22:14:43.277Z,21.05
2023-01-27T22:17:10.223Z,21.25
2023-01-27T22:19:37.946Z,20.23
2023-01-27T22:22:04.861Z,21.25
2023-01-27T22:24:31.590Z,23.88
2023-01-27T22:26:59.125Z,24.13
2023-01-27T22:29:26.295Z,23.77
2023-01-27T22:31:52.859Z,22.67
2023-01-27T22:34:19.909Z,41.72
2023-01-27T22:36:50.371Z,25.25
2023-01-27T22:39:17.072Z,33.20
2023-01-27T22:41:44.129Z,28.30
2023-01-27T22:44:13.307Z,23.85
2023-01-27T22:46:41.548Z,24.20
2023-01-27T22:49:08.587Z,22.33
2023-01-27T22:51:35.399Z,24.80
2023-01-27T22:54:02.040Z,23.83
2023-01-27T22:56:29.269Z,22.67
2023-01-27T22:58:55.993Z,21.65
2023-01-27T23:01:22.997Z,23.60
2023-01-27T23:03:49.602Z,21.10
2023-01-27T23:06:16.499Z,21.63
2023-01-27T23:08:43.076Z,25.88
2023-01-27T23:11:09.662Z,23.80
2023-01-27T23:13:36.644Z,31.20
2023-01-27T23:16:03.569Z,52.92
2023-01-27T23:18:30.185Z,30.15
2023-01-27T23:21:01.809Z,24.52
2023-01-27T23:23:28.418Z,23.80
2023-01-27T23:25:55.083Z,21.13
2023-01-27T23:28:22.208Z,24.10
2023-01-27T23:30:49.832Z,26.27
2023-01-27T23:33:17.247Z,20.90
2023-01-27T23:35:44.006Z,28.30
2023-01-27T23:38:22.706Z,26.88
2023-01-27T23:41:04.759Z,20.55
2023-01-27T23:43:31.601Z,21.08
2023-01-27T23:45:58.550Z,20.40
2023-01-27T23:48:25.542Z,22.05
2023-01-27T23:50:52.168Z,22.48
2023-01-27T23:53:18.758Z,25.63
2023-01-27T23:55:53.890Z,23.55
2023-01-27T23:58:20.629Z,21.17
